sensor_id;sensor_type;location;lat;lon;timestamp;pressure;altitude;pressure_sealevel;temperature;humidity
29839;BME280;18669;53.356;-1.464;2023-07-31T00:00:11;99410.94;;;16.67;100.00
29839;BME280;18669;53.356;-1.464;2023-07-31T00:02:56;99404.13;;;16.63;100.00
29839;BME280;18669;53.356;-1.464;2023-07-31T00:05:41;99399.47;;;16.66;100.00
29839;BME280;18669;53.356;-1.464;2023-07-31T00:08:26;99398.72;;;16.64;100.00
29839;BME280;18669;53.356;-1.464;2023-07-31T00:11:11;99380.22;;;16.63;100.00
29839;BME280;18669;53.356;-1.464;2023-07-31T00:13:56;99387.97;;;16.66;100.00
29839;BME280;18669;53.356;-1.464;2023-07-31T00:16:41;99385.44;;;16.64;100.00
29839;BME280;18669;53.356;-1.464;2023-07-31T00:19:26;99389.88;;;16.64;100.00
29839;BME280;18669;53.356;-1.464;2023-07-31T00:22:11;99391.38;;;16.68;100.00
29839;BME280;18669;53.356;-1.464;2023-07-31T00:24:56;99378.09;;;16.68;100.00
29839;BME280;18669;53.356;-1.464;2023-07-31T00:27:41;99385.25;;;16.67;100.00
29839;BME280;18669;53.356;-1.464;2023-07-31T00:30:29;99384.09;;;16.72;100.00
29839;BME280;18669;53.356;-1.464;2023-07-31T00:33:13;99380.28;;;16.76;100.00
29839;BME280;18669;53.356;-1.464;2023-07-31T00:35:58;99373.16;;;16.76;100.00
29839;BME280;18669;53.356;-1.464;2023-07-31T00:38:43;99372.31;;;16.76;100.00
29839;BME280;18669;53.356;-1.464;2023-07-31T00:41:28;99372.41;;;16.74;100.00
29839;BME280;18669;53.356;-1.464;2023-07-31T00:44:13;99363.28;;;16.78;100.00
29839;BME280;18669;53.356;-1.464;2023-07-31T00:46:58;99345.75;;;16.76;100.00
29839;BME280;18669;53.356;-1.464;2023-07-31T00:49:43;99347.22;;;16.80;100.00
29839;BME280;18669;53.356;-1.464;2023-07-31T00:52:28;99352.44;;;16.81;100.00
29839;BME280;18669;53.356;-1.464;2023-07-31T00:55:14;99354.16;;;16.82;100.00
29839;BME280;18669;53.356;-1.464;2023-07-31T00:57:59;99352.31;;;16.83;100.00
29839;BME280;18669;53.356;-1.464;2023-07-31T01:00:44;99364.03;;;16.80;100.00
29839;BME280;18669;53.356;-1.464;2023-07-31T01:03:29;99349.25;;;16.76;100.00
29839;BME280;18669;53.356;-1.464;2023-07-31T01:09:34;99353.13;;;16.98;100.00
29839;BME280;18669;53.356;-1.464;2023-07-31T01:12:22;99341.41;;;16.88;100.00
29839;BME280;18669;53.356;-1.464;2023-07-31T01:15:08;99341.47;;;17.00;100.00
29839;BME280;18669;53.356;-1.464;2023-07-31T01:17:56;99340.38;;;17.03;100.00
29839;BME280;18669;53.356;-1.464;2023-07-31T01:20:42;99327.19;;;16.89;100.00
29839;BME280;18669;53.356;-1.464;2023-07-31T01:23:48;99319.75;;;16.94;100.00
29839;BME280;18669;53.356;-1.464;2023-07-31T01:26:38;99319.09;;;16.90;100.00
29839;BME280;18669;53.356;-1.464;2023-07-31T01:29:59;99318.03;;;16.93;100.00
29839;BME280;18669;53.356;-1.464;2023-07-31T01:32:47;99308.78;;;16.85;100.00
29839;BME280;18669;53.356;-1.464;2023-07-31T01:35:37;99301.38;;;16.91;100.00
29839;BME280;18669;53.356;-1.464;2023-07-31T01:38:22;99307.38;;;16.80;100.00
29839;BME280;18669;53.356;-1.464;2023-07-31T01:41:07;99307.38;;;16.80;100.00
29839;BME280;18669;53.356;-1.464;2023-07-31T01:43:52;99301.03;;;16.82;100.00
29839;BME280;18669;53.356;-1.464;2023-07-31T01:46:37;99297.72;;;16.79;100.00
29839;BME280;18669;53.356;-1.464;2023-07-31T01:49:22;99299.53;;;16.78;100.00
29839;BME280;18669;53.356;-1.464;2023-07-31T01:52:07;99303.88;;;16.79;100.00
29839;BME280;18669;53.356;-1.464;2023-07-31T01:54:51;99294.44;;;16.75;100.00
29839;BME280;18669;53.356;-1.464;2023-07-31T01:57:37;99288.78;;;16.80;100.00
29839;BME280;18669;53.356;-1.464;2023-07-31T02:00:22;99277.66;;;16.75;100.00
29839;BME280;18669;53.356;-1.464;2023-07-31T02:03:07;99284.75;;;16.74;100.00
29839;BME280;18669;53.356;-1.464;2023-07-31T02:05:54;99289.25;;;16.87;100.00
29839;BME280;18669;53.356;-1.464;2023-07-31T02:08:39;99280.19;;;16.76;100.00
29839;BME280;18669;53.356;-1.464;2023-07-31T02:11:23;99276.16;;;16.70;100.00
29839;BME280;18669;53.356;-1.464;2023-07-31T02:14:08;99271.06;;;16.67;100.00
29839;BME280;18669;53.356;-1.464;2023-07-31T02:16:53;99276.91;;;16.73;100.00
29839;BME280;18669;53.356;-1.464;2023-07-31T02:19:38;99266.38;;;16.71;100.00
29839;BME280;18669;53.356;-1.464;2023-07-31T02:22:23;99263.72;;;16.71;100.00
29839;BME280;18669;53.356;-1.464;2023-07-31T02:25:08;99259.56;;;16.67;100.00
29839;BME280;18669;53.356;-1.464;2023-07-31T02:27:53;99259.69;;;16.65;100.00
29839;BME280;18669;53.356;-1.464;2023-07-31T02:30:38;99253.84;;;16.73;100.00
29839;BME280;18669;53.356;-1.464;2023-07-31T02:33:23;99253.00;;;16.73;100.00
29839;BME280;18669;53.356;-1.464;2023-07-31T02:36:07;99239.19;;;16.67;100.00
29839;BME280;18669;53.356;-1.464;2023-07-31T02:38:52;99246.28;;;16.67;100.00
29839;BME280;18669;53.356;-1.464;2023-07-31T02:41:37;99239.19;;;16.67;100.00
29839;BME280;18669;53.356;-1.464;2023-07-31T02:44:22;99252.06;;;16.74;100.00
29839;BME280;18669;53.356;-1.464;2023-07-31T02:47:07;99245.13;;;16.71;100.00
29839;BME280;18669;53.356;-1.464;2023-07-31T02:49:52;99245.13;;;16.71;100.00
29839;BME280;18669;53.356;-1.464;2023-07-31T02:52:37;99240.56;;;16.73;100.00
29839;BME280;18669;53.356;-1.464;2023-07-31T02:55:21;99239.81;;;16.71;100.00
29839;BME280;18669;53.356;-1.464;2023-07-31T02:58:06;99236.41;;;16.69;100.00
29839;BME280;18669;53.356;-1.464;2023-07-31T03:00:51;99234.50;;;16.71;100.00
29839;BME280;18669;53.356;-1.464;2023-07-31T03:03:36;99237.28;;;16.69;100.00
29839;BME280;18669;53.356;-1.464;2023-07-31T03:06:21;99233.88;;;16.80;100.00
29839;BME280;18669;53.356;-1.464;2023-07-31T03:09:06;99229.72;;;16.76;100.00
29839;BME280;18669;53.356;-1.464;2023-07-31T03:11:51;99234.09;;;16.77;100.00
29839;BME280;18669;53.356;-1.464;2023-07-31T03:14:35;99236.13;;;16.74;100.00
29839;BME280;18669;53.356;-1.464;2023-07-31T03:17:20;99228.03;;;16.75;100.00
29839;BME280;18669;53.356;-1.464;2023-07-31T03:20:06;99226.94;;;16.78;100.00
29839;BME280;18669;53.356;-1.464;2023-07-31T03:22:51;99234.22;;;16.89;100.00
29839;BME280;18669;53.356;-1.464;2023-07-31T03:25:35;99221.97;;;16.86;100.00
29839;BME280;18669;53.356;-1.464;2023-07-31T03:28:20;99222.84;;;16.87;100.00
29839;BME280;18669;53.356;-1.464;2023-07-31T03:31:05;99222.72;;;16.88;100.00
29839;BME280;18669;53.356;-1.464;2023-07-31T03:33:50;99228.78;;;16.90;100.00
29839;BME280;18669;53.356;-1.464;2023-07-31T03:36:35;99219.44;;;16.84;100.00
29839;BME280;18669;53.356;-1.464;2023-07-31T03:39:20;99226.88;;;16.92;100.00
29839;BME280;18669;53.356;-1.464;2023-07-31T03:42:05;99225.16;;;16.91;100.00
29839;BME280;18669;53.356;-1.464;2023-07-31T03:44:50;99217.41;;;16.88;100.00
29839;BME280;18669;53.356;-1.464;2023-07-31T03:47:35;99220.81;;;16.90;100.00
29839;BME280;18669;53.356;-1.464;2023-07-31T03:50:20;99216.69;;;16.99;100.00
29839;BME280;18669;53.356;-1.464;2023-07-31T03:53:05;99221.34;;;16.95;100.00
29839;BME280;18669;53.356;-1.464;2023-07-31T03:55:50;99225.81;;;16.95;100.00
29839;BME280;18669;53.356;-1.464;2023-07-31T03:58:35;99223.91;;;16.97;100.00
29839;BME280;18669;53.356;-1.464;2023-07-31T04:01:21;99223.81;;;16.98;100.00
29839;BME280;18669;53.356;-1.464;2023-07-31T04:04:05;99217.84;;;16.95;100.00
29839;BME280;18669;53.356;-1.464;2023-07-31T04:06:50;99222.19;;;16.96;100.00
29839;BME280;18669;53.356;-1.464;2023-07-31T04:09:35;99200.22;;;17.07;100.00
29839;BME280;18669;53.356;-1.464;2023-07-31T04:12:20;99210.50;;;17.11;100.00
29839;BME280;18669;53.356;-1.464;2023-07-31T04:15:05;99199.13;;;17.09;100.00
29839;BME280;18669;53.356;-1.464;2023-07-31T04:17:50;99194.78;;;17.08;100.00
29839;BME280;18669;53.356;-1.464;2023-07-31T04:20:35;99197.88;;;17.02;100.00
29839;BME280;18669;53.356;-1.464;2023-07-31T04:23:20;99203.50;;;16.97;100.00
29839;BME280;18669;53.356;-1.464;2023-07-31T04:26:05;99201.59;;;16.99;100.00
29839;BME280;18669;53.356;-1.464;2023-07-31T04:28:50;99194.59;;;16.98;100.00
29839;BME280;18669;53.356;-1.464;2023-07-31T04:31:35;99197.88;;;17.02;100.00
29839;BME280;18669;53.356;-1.464;2023-07-31T04:34:20;99198.72;;;17.03;100.00
29839;BME280;18669;53.356;-1.464;2023-07-31T04:37:05;99206.50;;;17.06;100.00
29839;BME280;18669;53.356;-1.464;2023-07-31T04:39:50;99208.19;;;17.07;100.00
29839;BME280;18669;53.356;-1.464;2023-07-31T04:42:34;99209.16;;;17.06;100.00
29839;BME280;18669;53.356;-1.464;2023-07-31T04:45:19;99218.81;;;17.07;100.00
29839;BME280;18669;53.356;-1.464;2023-07-31T04:48:04;99209.16;;;17.06;100.00
29839;BME280;18669;53.356;-1.464;2023-07-31T04:50:49;99218.81;;;17.07;100.00
29839;BME280;18669;53.356;-1.464;2023-07-31T04:53:34;99214.03;;;17.12;100.00
29839;BME280;18669;53.356;-1.464;2023-07-31T04:56:19;99219.34;;;17.12;100.00
29839;BME280;18669;53.356;-1.464;2023-07-31T04:59:04;99216.34;;;17.17;100.00
29839;BME280;18669;53.356;-1.464;2023-07-31T05:01:48;99210.81;;;17.20;100.00
29839;BME280;18669;53.356;-1.464;2023-07-31T05:04:33;99209.31;;;17.28;100.00
29839;BME280;18669;53.356;-1.464;2023-07-31T05:07:18;99207.59;;;17.27;100.00
29839;BME280;18669;53.356;-1.464;2023-07-31T05:10:03;99212.09;;;17.27;100.00
29839;BME280;18669;53.356;-1.464;2023-07-31T05:12:48;99196.88;;;17.16;100.00
29839;BME280;18669;53.356;-1.464;2023-07-31T05:15:33;99207.06;;;17.35;100.00
29839;BME280;18669;53.356;-1.464;2023-07-31T05:18:18;99215.97;;;17.34;100.00
29839;BME280;18669;53.356;-1.464;2023-07-31T05:21:03;99229.78;;;17.39;100.00
29839;BME280;18669;53.356;-1.464;2023-07-31T05:23:47;99233.41;;;17.38;100.00
29839;BME280;18669;53.356;-1.464;2023-07-31T05:26:32;99233.41;;;17.38;100.00
29839;BME280;18669;53.356;-1.464;2023-07-31T05:29:17;99235.25;;;17.38;100.00
29839;BME280;18669;53.356;-1.464;2023-07-31T05:32:02;99232.59;;;17.38;100.00
29839;BME280;18669;53.356;-1.464;2023-07-31T05:34:51;99230.09;;;17.48;100.00
29839;BME280;18669;53.356;-1.464;2023-07-31T05:37:36;99237.25;;;17.34;100.00
29839;BME280;18669;53.356;-1.464;2023-07-31T05:40:21;99229.50;;;17.31;100.00
29839;BME280;18669;53.356;-1.464;2023-07-31T05:43:06;99233.75;;;17.34;100.00
29839;BME280;18669;53.356;-1.464;2023-07-31T05:45:52;99235.78;;;17.30;100.00
29839;BME280;18669;53.356;-1.464;2023-07-31T05:48:37;99240.25;;;17.29;100.00
29839;BME280;18669;53.356;-1.464;2023-07-31T05:51:22;99234.63;;;17.21;100.00
29839;BME280;18669;53.356;-1.464;2023-07-31T05:54:07;99231.00;;;17.22;100.00
29839;BME280;18669;53.356;-1.464;2023-07-31T05:56:52;99215.59;;;17.14;100.00
29839;BME280;18669;53.356;-1.464;2023-07-31T05:59:37;99230.38;;;17.19;100.00
29839;BME280;18669;53.356;-1.464;2023-07-31T06:02:22;99218.59;;;17.23;100.00
29839;BME280;18669;53.356;-1.464;2023-07-31T06:05:07;99211.00;;;17.29;100.00
29839;BME280;18669;53.356;-1.464;2023-07-31T06:07:52;99205.56;;;17.44;100.00
29839;BME280;18669;53.356;-1.464;2023-07-31T06:10:37;99199.38;;;17.43;100.00
29839;BME280;18669;53.356;-1.464;2023-07-31T06:13:22;99200.84;;;17.48;100.00
29839;BME280;18669;53.356;-1.464;2023-07-31T06:16:07;99193.91;;;17.58;100.00
29839;BME280;18669;53.356;-1.464;2023-07-31T06:18:52;99189.38;;;17.71;100.00
29839;BME280;18669;53.356;-1.464;2023-07-31T06:21:37;99184.00;;;17.84;100.00
29839;BME280;18669;53.356;-1.464;2023-07-31T06:24:22;99180.56;;;17.95;100.00
29839;BME280;18669;53.356;-1.464;2023-07-31T06:27:09;99177.44;;;18.01;100.00
29839;BME280;18669;53.356;-1.464;2023-07-31T06:29:59;99177.13;;;18.06;100.00
29839;BME280;18669;53.356;-1.464;2023-07-31T06:32:44;99161.66;;;18.11;100.00
29839;BME280;18669;53.356;-1.464;2023-07-31T06:35:28;99174.97;;;18.11;100.00
29839;BME280;18669;53.356;-1.464;2023-07-31T06:38:13;99173.41;;;18.20;100.00
29839;BME280;18669;53.356;-1.464;2023-07-31T06:40:59;99182.59;;;18.16;100.00
29839;BME280;18669;53.356;-1.464;2023-07-31T06:43:47;99187.31;;;18.12;100.00
29839;BME280;18669;53.356;-1.464;2023-07-31T06:46:32;99174.59;;;18.16;100.00
29839;BME280;18669;53.356;-1.464;2023-07-31T06:49:17;99174.13;;;18.22;100.00
29839;BME280;18669;53.356;-1.464;2023-07-31T06:52:03;99174.75;;;18.26;100.00
29839;BME280;18669;53.356;-1.464;2023-07-31T06:55:01;99166.19;;;18.45;100.00
29839;BME280;18669;53.356;-1.464;2023-07-31T06:57:49;99174.53;;;18.40;100.00
29839;BME280;18669;53.356;-1.464;2023-07-31T07:00:35;99179.75;;;18.42;100.00
29839;BME280;18669;53.356;-1.464;2023-07-31T07:03:20;99188.31;;;18.34;100.00
29839;BME280;18669;53.356;-1.464;2023-07-31T07:06:04;99192.19;;;18.30;100.00
29839;BME280;18669;53.356;-1.464;2023-07-31T07:08:49;99184.44;;;18.27;100.00
29839;BME280;18669;53.356;-1.464;2023-07-31T07:11:34;99186.84;;;18.30;100.00
29839;BME280;18669;53.356;-1.464;2023-07-31T07:14:22;99189.03;;;18.25;100.00
29839;BME280;18669;53.356;-1.464;2023-07-31T07:17:07;99181.66;;;18.28;100.00
29839;BME280;18669;53.356;-1.464;2023-07-31T07:19:52;99173.94;;;18.48;100.00
29839;BME280;18669;53.356;-1.464;2023-07-31T07:22:37;99185.59;;;18.58;100.00
29839;BME280;18669;53.356;-1.464;2023-07-31T07:25:22;99169.72;;;18.57;100.00
29839;BME280;18669;53.356;-1.464;2023-07-31T07:28:06;99171.06;;;18.51;100.00
29839;BME280;18669;53.356;-1.464;2023-07-31T07:30:52;99165.72;;;18.51;100.00
29839;BME280;18669;53.356;-1.464;2023-07-31T07:33:37;99170.28;;;18.38;100.00
29839;BME280;18669;53.356;-1.464;2023-07-31T07:36:22;99164.09;;;18.26;100.00
29839;BME280;18669;53.356;-1.464;2023-07-31T07:39:09;99150.00;;;18.59;100.00
29839;BME280;18669;53.356;-1.464;2023-07-31T07:41:54;99138.97;;;18.41;100.00
29839;BME280;18669;53.356;-1.464;2023-07-31T07:44:39;99128.06;;;18.33;100.00
29839;BME280;18669;53.356;-1.464;2023-07-31T07:47:24;99129.88;;;18.32;100.00
29839;BME280;18669;53.356;-1.464;2023-07-31T07:50:09;99146.47;;;18.36;100.00
29839;BME280;18669;53.356;-1.464;2023-07-31T07:52:54;99148.25;;;18.24;100.00
29839;BME280;18669;53.356;-1.464;2023-07-31T07:55:39;99144.13;;;18.20;100.00
29839;BME280;18669;53.356;-1.464;2023-07-31T07:58:24;99130.19;;;18.05;100.00
29839;BME280;18669;53.356;-1.464;2023-07-31T08:01:09;99144.31;;;18.06;100.00
29839;BME280;18669;53.356;-1.464;2023-07-31T08:03:54;99133.50;;;17.96;100.00
29839;BME280;18669;53.356;-1.464;2023-07-31T08:06:39;99136.53;;;17.91;100.00
29839;BME280;18669;53.356;-1.464;2023-07-31T08:09:24;99148.22;;;17.88;100.00
29839;BME280;18669;53.356;-1.464;2023-07-31T08:12:09;99155.53;;;17.98;100.00
29839;BME280;18669;53.356;-1.464;2023-07-31T08:14:54;99167.47;;;18.16;100.00
29839;BME280;18669;53.356;-1.464;2023-07-31T08:17:39;99162.81;;;18.31;100.00
29839;BME280;18669;53.356;-1.464;2023-07-31T08:20:23;99159.31;;;18.42;100.00
29839;BME280;18669;53.356;-1.464;2023-07-31T08:23:08;99153.84;;;18.44;100.00
29839;BME280;18669;53.356;-1.464;2023-07-31T08:25:53;99159.63;;;18.38;100.00
29839;BME280;18669;53.356;-1.464;2023-07-31T08:28:38;99154.56;;;18.34;100.00
29839;BME280;18669;53.356;-1.464;2023-07-31T08:31:24;99141.59;;;18.30;100.00
29839;BME280;18669;53.356;-1.464;2023-07-31T08:34:09;99151.41;;;18.29;100.00
29839;BME280;18669;53.356;-1.464;2023-07-31T08:36:54;99139.50;;;18.11;100.00
29839;BME280;18669;53.356;-1.464;2023-07-31T08:39:39;99136.34;;;18.06;100.00
29839;BME280;18669;53.356;-1.464;2023-07-31T08:42:27;99136.19;;;18.31;100.00
29839;BME280;18669;53.356;-1.464;2023-07-31T08:45:17;99136.66;;;18.37;100.00
29839;BME280;18669;53.356;-1.464;2023-07-31T08:48:03;99141.00;;;18.38;100.00
29839;BME280;18669;53.356;-1.464;2023-07-31T08:50:48;99151.19;;;18.44;100.00
29839;BME280;18669;53.356;-1.464;2023-07-31T08:53:34;99148.53;;;18.55;100.00
29839;BME280;18669;53.356;-1.464;2023-07-31T08:56:19;99146.38;;;18.60;100.00
29839;BME280;18669;53.356;-1.464;2023-07-31T08:59:05;99145.00;;;18.55;100.00
29839;BME280;18669;53.356;-1.464;2023-07-31T09:01:53;99151.47;;;18.63;100.00
29839;BME280;18669;53.356;-1.464;2023-07-31T09:04:38;99151.56;;;18.51;100.00
29839;BME280;18669;53.356;-1.464;2023-07-31T09:07:24;99142.47;;;18.42;100.00
29839;BME280;18669;53.356;-1.464;2023-07-31T09:10:09;99148.28;;;18.36;100.00
29839;BME280;18669;53.356;-1.464;2023-07-31T09:12:55;99141.50;;;18.43;100.00
29839;BME280;18669;53.356;-1.464;2023-07-31T09:15:43;99135.69;;;18.26;100.00
29839;BME280;18669;53.356;-1.464;2023-07-31T09:18:27;99140.97;;;18.15;100.00
29839;BME280;18669;53.356;-1.464;2023-07-31T09:21:12;99133.72;;;18.17;100.00
29839;BME280;18669;53.356;-1.464;2023-07-31T09:23:57;99142.31;;;18.21;100.00
29839;BME280;18669;53.356;-1.464;2023-07-31T09:26:42;99132.50;;;18.21;100.00
29839;BME280;18669;53.356;-1.464;2023-07-31T09:29:28;99127.78;;;18.13;100.00
29839;BME280;18669;53.356;-1.464;2023-07-31T09:32:18;99132.78;;;18.29;100.00
29839;BME280;18669;53.356;-1.464;2023-07-31T09:35:13;99133.75;;;18.28;100.00
29839;BME280;18669;53.356;-1.464;2023-07-31T09:38:03;99134.22;;;18.22;100.00
29839;BME280;18669;53.356;-1.464;2023-07-31T09:40:48;99127.56;;;18.16;100.00
29839;BME280;18669;53.356;-1.464;2023-07-31T09:43:33;99109.66;;;18.18;100.00
29839;BME280;18669;53.356;-1.464;2023-07-31T09:46:20;99108.94;;;18.28;100.00
29839;BME280;18669;53.356;-1.464;2023-07-31T09:49:09;99121.16;;;18.30;100.00
29839;BME280;18669;53.356;-1.464;2023-07-31T09:51:55;99131.31;;;18.25;100.00
29839;BME280;18669;53.356;-1.464;2023-07-31T09:54:40;99133.25;;;18.23;100.00
29839;BME280;18669;53.356;-1.464;2023-07-31T09:57:25;99141.22;;;18.23;100.00
29839;BME280;18669;53.356;-1.464;2023-07-31T10:00:12;99147.78;;;18.30;100.00
29839;BME280;18669;53.356;-1.464;2023-07-31T10:03:07;99128.19;;;18.31;100.00
29839;BME280;18669;53.356;-1.464;2023-07-31T10:05:53;99131.88;;;18.06;100.00
29839;BME280;18669;53.356;-1.464;2023-07-31T10:08:40;99121.09;;;18.08;100.00
29839;BME280;18669;53.356;-1.464;2023-07-31T10:11:27;99136.38;;;18.17;100.00
29839;BME280;18669;53.356;-1.464;2023-07-31T10:14:13;99122.75;;;17.97;100.00
29839;BME280;18669;53.356;-1.464;2023-07-31T10:16:58;99133.91;;;18.02;100.00
29839;BME280;18669;53.356;-1.464;2023-07-31T10:19:44;99128.31;;;17.94;100.00
29839;BME280;18669;53.356;-1.464;2023-07-31T10:22:30;99141.59;;;17.94;100.00
29839;BME280;18669;53.356;-1.464;2023-07-31T10:25:15;99145.53;;;17.77;100.00
29839;BME280;18669;53.356;-1.464;2023-07-31T10:28:01;99144.16;;;17.71;100.00
29839;BME280;18669;53.356;-1.464;2023-07-31T10:30:47;99141.91;;;17.78;100.00
29839;BME280;18669;53.356;-1.464;2023-07-31T10:33:33;99133.66;;;18.06;100.00
29839;BME280;18669;53.356;-1.464;2023-07-31T10:36:19;99132.63;;;17.84;100.00
29839;BME280;18669;53.356;-1.464;2023-07-31T10:39:04;99122.88;;;17.71;100.00
29839;BME280;18669;53.356;-1.464;2023-07-31T10:42:11;99105.88;;;17.85;100.00
29839;BME280;18669;53.356;-1.464;2023-07-31T10:44:58;99108.53;;;17.85;100.00
29839;BME280;18669;53.356;-1.464;2023-07-31T10:47:45;99102.38;;;17.85;100.00
29839;BME280;18669;53.356;-1.464;2023-07-31T10:50:33;99099.03;;;17.94;100.00
29839;BME280;18669;53.356;-1.464;2023-07-31T10:53:32;99096.56;;;18.04;100.00
29839;BME280;18669;53.356;-1.464;2023-07-31T10:56:17;99098.31;;;17.92;100.00
29839;BME280;18669;53.356;-1.464;2023-07-31T10:59:06;99101.38;;;17.74;100.00
29839;BME280;18669;53.356;-1.464;2023-07-31T11:01:53;99119.47;;;17.94;100.00
29839;BME280;18669;53.356;-1.464;2023-07-31T11:04:41;99116.81;;;17.94;100.00
29839;BME280;18669;53.356;-1.464;2023-07-31T11:07:46;99103.97;;;17.87;100.00
29839;BME280;18669;53.356;-1.464;2023-07-31T11:10:31;99093.91;;;17.80;100.00
29839;BME280;18669;53.356;-1.464;2023-07-31T11:13:15;99086.28;;;17.86;100.00
29839;BME280;18669;53.356;-1.464;2023-07-31T11:16:00;99084.50;;;17.87;100.00
29839;BME280;18669;53.356;-1.464;2023-07-31T11:18:46;99086.34;;;17.98;100.00
29839;BME280;18669;53.356;-1.464;2023-07-31T11:21:33;99117.16;;;17.89;100.00
29839;BME280;18669;53.356;-1.464;2023-07-31T11:24:17;99114.28;;;17.92;100.00
29839;BME280;18669;53.356;-1.464;2023-07-31T11:27:07;99125.91;;;18.02;100.00
29839;BME280;18669;53.356;-1.464;2023-07-31T11:29:52;99137.81;;;17.85;100.00
29839;BME280;18669;53.356;-1.464;2023-07-31T11:32:37;99139.19;;;17.91;100.00
29839;BME280;18669;53.356;-1.464;2023-07-31T11:35:22;99137.94;;;17.84;100.00
29839;BME280;18669;53.356;-1.464;2023-07-31T11:38:07;99137.47;;;17.90;100.00
29839;BME280;18669;53.356;-1.464;2023-07-31T11:40:53;99124.00;;;18.04;100.00
29839;BME280;18669;53.356;-1.464;2023-07-31T11:43:39;99126.78;;;18.03;100.00
29839;BME280;18669;53.356;-1.464;2023-07-31T11:46:24;99117.66;;;17.94;100.00
29839;BME280;18669;53.356;-1.464;2023-07-31T11:49:09;99122.66;;;17.99;100.00
29839;BME280;18669;53.356;-1.464;2023-07-31T11:51:54;99133.50;;;17.96;100.00
29839;BME280;18669;53.356;-1.464;2023-07-31T11:54:40;99135.00;;;18.00;100.00
29839;BME280;18669;53.356;-1.464;2023-07-31T11:57:25;99132.03;;;17.92;100.00
29839;BME280;18669;53.356;-1.464;2023-07-31T12:00:12;99111.66;;;18.03;100.00
29839;BME280;18669;53.356;-1.464;2023-07-31T12:02:58;99102.75;;;17.92;100.00
29839;BME280;18669;53.356;-1.464;2023-07-31T12:05:43;99090.88;;;17.84;100.00
29839;BME280;18669;53.356;-1.464;2023-07-31T12:08:29;99096.06;;;17.74;100.00
29839;BME280;18669;53.356;-1.464;2023-07-31T12:11:14;99101.16;;;17.53;100.00
29839;BME280;18669;53.356;-1.464;2023-07-31T12:13:59;99103.22;;;17.50;100.00
29839;BME280;18669;53.356;-1.464;2023-07-31T12:16:44;99090.28;;;17.45;100.00
29839;BME280;18669;53.356;-1.464;2023-07-31T12:19:30;99072.88;;;17.52;100.00
29839;BME280;18669;53.356;-1.464;2023-07-31T12:22:16;99051.63;;;17.52;100.00
29839;BME280;18669;53.356;-1.464;2023-07-31T12:25:01;99074.31;;;17.45;100.00
29839;BME280;18669;53.356;-1.464;2023-07-31T12:27:45;99066.81;;;17.50;100.00
29839;BME280;18669;53.356;-1.464;2023-07-31T12:30:34;99079.50;;;17.71;100.00
29839;BME280;18669;53.356;-1.464;2023-07-31T12:33:19;99100.84;;;17.58;100.00
29839;BME280;18669;53.356;-1.464;2023-07-31T12:36:08;99088.44;;;17.70;100.00
29839;BME280;18669;53.356;-1.464;2023-07-31T12:38:53;99073.81;;;17.64;100.00
29839;BME280;18669;53.356;-1.464;2023-07-31T12:41:40;99072.56;;;17.68;100.00
29839;BME280;18669;53.356;-1.464;2023-07-31T12:44:25;99063.38;;;17.61;100.00
29839;BME280;18669;53.356;-1.464;2023-07-31T12:47:10;99096.34;;;17.58;100.00
29839;BME280;18669;53.356;-1.464;2023-07-31T12:49:55;99105.06;;;17.60;100.00
29839;BME280;18669;53.356;-1.464;2023-07-31T12:52:40;99094.88;;;17.54;100.00
29839;BME280;18669;53.356;-1.464;2023-07-31T12:55:24;99096.44;;;17.45;100.00
29839;BME280;18669;53.356;-1.464;2023-07-31T12:58:09;99109.94;;;17.42;100.00
29839;BME280;18669;53.356;-1.464;2023-07-31T13:00:55;99110.06;;;17.41;100.00
29839;BME280;18669;53.356;-1.464;2023-07-31T13:03:40;99105.81;;;17.38;100.00
29839;BME280;18669;53.356;-1.464;2023-07-31T13:06:25;99086.47;;;17.36;100.00
29839;BME280;18669;53.356;-1.464;2023-07-31T13:09:10;99078.72;;;17.33;100.00
29839;BME280;18669;53.356;-1.464;2023-07-31T13:11:55;99078.63;;;17.35;100.00
29839;BME280;18669;53.356;-1.464;2023-07-31T13:14:40;99066.97;;;17.24;100.00
29839;BME280;18669;53.356;-1.464;2023-07-31T13:17:25;99055.44;;;17.12;100.00
29839;BME280;18669;53.356;-1.464;2023-07-31T13:20:10;99052.47;;;17.04;100.00
29839;BME280;18669;53.356;-1.464;2023-07-31T13:22:55;99039.22;;;16.91;100.00
29839;BME280;18669;53.356;-1.464;2023-07-31T13:25:40;99050.06;;;16.88;100.00
29839;BME280;18669;53.356;-1.464;2023-07-31T13:28:24;99043.19;;;16.85;100.00
29839;BME280;18669;53.356;-1.464;2023-07-31T13:31:10;99043.28;;;16.84;100.00
29839;BME280;18669;53.356;-1.464;2023-07-31T13:33:56;99054.84;;;16.83;100.00
29839;BME280;18669;53.356;-1.464;2023-07-31T13:36:40;99050.06;;;16.88;100.00
29839;BME280;18669;53.356;-1.464;2023-07-31T13:39:26;99047.19;;;16.91;100.00
29839;BME280;18669;53.356;-1.464;2023-07-31T13:42:10;99051.88;;;16.88;100.00
29839;BME280;18669;53.356;-1.464;2023-07-31T13:44:57;99053.78;;;16.85;100.00
29839;BME280;18669;53.356;-1.464;2023-07-31T13:47:41;99051.38;;;16.82;100.00
29839;BME280;18669;53.356;-1.464;2023-07-31T13:50:26;99044.03;;;16.73;100.00
29839;BME280;18669;53.356;-1.464;2023-07-31T13:53:13;99048.75;;;16.69;100.00
29839;BME280;18669;53.356;-1.464;2023-07-31T13:55:58;99055.31;;;16.64;100.00
29839;BME280;18669;53.356;-1.464;2023-07-31T13:58:43;99050.47;;;16.58;100.00
29839;BME280;18669;53.356;-1.464;2023-07-31T14:01:28;99053.13;;;16.58;100.00
29839;BME280;18669;53.356;-1.464;2023-07-31T14:04:13;99041.66;;;16.57;100.00
29839;BME280;18669;53.356;-1.464;2023-07-31T14:06:58;99033.25;;;16.63;100.00
29839;BME280;18669;53.356;-1.464;2023-07-31T14:09:43;99031.75;;;16.59;100.00
29839;BME280;18669;53.356;-1.464;2023-07-31T14:12:40;99033.34;;;16.62;100.00
29839;BME280;18669;53.356;-1.464;2023-07-31T14:15:25;99035.03;;;16.63;100.00
29839;BME280;18669;53.356;-1.464;2023-07-31T14:18:10;99038.00;;;16.71;100.00